Time;durP1;ratioP1;P1;durP2;ratioP2;P2;SDS_P1;SDS_P2;PMS_P1;PMS_P2;Temp;Humidity;BMP_temperature;BMP_pressure;BME280_temperature;BME280_humidity;BME280_pressure;Samples;Min_cycle;Max_cycle;Signal;HPM_P1;HPM_P2
2021/10/22 02:45:41;;;;;;;6.18;1.33;;;13.40;71.20;;;;;;5624336;24;20122;-81
2021/10/22 02:48:07;;;;;;;4.00;1.17;;;13.50;71.50;;;;;;4783510;29;20032;-81
2021/10/22 02:50:34;;;;;;;5.82;1.38;;;13.60;71.20;;;;;;4803745;29;20027;-81
2021/10/22 02:53:02;;;;;;;3.80;1.17;;;13.60;70.70;;;;;;4796462;29;20050;-81
2021/10/22 02:55:28;;;;;;;3.00;1.30;;;13.70;70.60;;;;;;4796775;29;20398;-81
2021/10/22 02:57:55;;;;;;;4.43;1.30;;;13.80;70.60;;;;;;4796912;29;20055;-81
2021/10/22 03:00:21;;;;;;;11.52;1.58;;;13.80;70.30;;;;;;4796858;29;20094;-81
2021/10/22 03:02:47;;;;;;;3.53;0.95;;;13.90;70.50;;;;;;4796731;29;20588;-80
2021/10/22 03:05:14;;;;;;;4.35;1.10;;;13.90;70.40;;;;;;4796853;30;20031;-81
2021/10/22 03:07:40;;;;;;;7.22;0.95;;;13.90;70.20;;;;;;4796562;29;20038;-81
2021/10/22 03:10:08;;;;;;;2.50;0.85;;;14.00;70.20;;;;;;4797925;29;20028;-81
2021/10/22 03:12:38;;;;;;;4.97;1.10;;;14.10;70.30;;;;;;4796687;30;20106;-81
2021/10/22 03:15:06;;;;;;;2.67;1.00;;;14.00;70.10;;;;;;4796939;29;20020;-81
2021/10/22 03:17:32;;;;;;;8.23;1.30;;;14.00;70.30;;;;;;4773971;29;20031;-81
2021/10/22 03:19:58;;;;;;;7.30;1.55;;;14.00;70.30;;;;;;4797180;29;20078;-81
2021/10/22 03:22:24;;;;;;;7.25;1.42;;;14.00;70.50;;;;;;4796821;29;20099;-81
2021/10/22 03:24:51;;;;;;;9.50;1.77;;;14.00;70.70;;;;;;4796931;29;20378;-81
2021/10/22 03:27:19;;;;;;;4.78;1.25;;;13.90;70.90;;;;;;4796881;29;20065;-81
2021/10/22 03:29:45;;;;;;;3.72;1.15;;;13.90;71.00;;;;;;4796600;29;20036;-81
2021/10/22 03:32:11;;;;;;;6.80;1.15;;;14.00;71.00;;;;;;4796222;29;20042;-81
2021/10/22 03:34:37;;;;;;;3.85;1.25;;;14.00;71.20;;;;;;4800836;29;20503;-81
2021/10/22 03:37:03;;;;;;;2.60;0.90;;;14.00;71.00;;;;;;4800665;29;20051;-81
2021/10/22 03:39:28;;;;;;;8.27;1.33;;;14.00;71.00;;;;;;4800598;29;20231;-81
2021/10/22 03:41:54;;;;;;;4.30;1.33;;;14.00;70.80;;;;;;4800515;29;20319;-81
2021/10/22 03:44:20;;;;;;;5.95;1.10;;;14.10;70.80;;;;;;4801110;29;20051;-81
2021/10/22 03:46:46;;;;;;;4.47;1.17;;;14.00;70.70;;;;;;4799849;29;20058;-81
2021/10/22 03:49:11;;;;;;;4.60;1.23;;;14.10;71.00;;;;;;4788347;30;20081;-81
2021/10/22 03:51:37;;;;;;;5.20;1.10;;;14.00;71.00;;;;;;4770693;30;20040;-81
2021/10/22 03:54:04;;;;;;;;;;;14.00;71.20;;;;;;4815370;29;20106;-81
2021/10/22 03:56:30;;;;;;;2.87;0.80;;;14.00;71.40;;;;;;4785199;29;19944;-81
2021/10/22 03:58:57;;;;;;;4.10;1.23;;;14.00;71.70;;;;;;4793962;29;20256;-81
2021/10/22 04:01:22;;;;;;;5.65;1.13;;;13.90;71.60;;;;;;4789043;29;20155;-81
2021/10/22 04:03:49;;;;;;;18.40;1.40;;;14.00;71.80;;;;;;4799368;29;20043;-81
2021/10/22 04:06:14;;;;;;;4.28;1.13;;;13.90;71.80;;;;;;4789087;29;20040;-81
2021/10/22 04:08:40;;;;;;;6.15;1.50;;;13.90;72.10;;;;;;4782048;29;20086;-81
2021/10/22 04:11:26;;;;;;;3.40;0.98;;;13.90;72.10;;;;;;4823449;29;20086;-81
2021/10/22 04:13:52;;;;;;;3.63;1.48;;;14.00;72.10;;;;;;4813760;29;20042;-81
2021/10/22 04:16:17;;;;;;;7.38;1.40;;;14.00;72.00;;;;;;4808008;29;20093;-81
2021/10/22 04:18:43;;;;;;;4.72;1.13;;;14.00;72.00;;;;;;4834353;29;20030;-81
2021/10/22 04:21:10;;;;;;;6.75;1.92;;;14.00;72.10;;;;;;4816864;29;20050;-81
2021/10/22 04:23:35;;;;;;;7.03;2.77;;;14.00;72.30;;;;;;4813658;29;20093;-81
2021/10/22 04:26:01;;;;;;;4.32;1.08;;;14.00;72.30;;;;;;4834767;29;20049;-81
2021/10/22 04:28:27;;;;;;;5.55;1.00;;;14.00;72.40;;;;;;4834456;29;20152;-81
2021/10/22 04:30:53;;;;;;;6.40;1.30;;;13.90;72.60;;;;;;4819316;29;20091;-81
2021/10/22 04:33:19;;;;;;;7.00;0.95;;;14.00;72.60;;;;;;4807796;29;20027;-81
2021/10/22 04:35:44;;;;;;;9.13;1.60;;;14.00;72.80;;;;;;4816769;29;20065;-81
2021/10/22 04:40:55;;;;;;;8.55;1.35;;;14.00;72.80;;;;;;4800390;29;20038;-81
2021/10/22 04:43:22;;;;;;;8.50;1.47;;;14.00;72.60;;;;;;4802739;29;20030;-81
2021/10/22 04:45:50;;;;;;;5.43;1.55;;;14.10;72.60;;;;;;4797693;29;20081;-80
2021/10/22 04:48:16;;;;;;;7.32;1.60;;;14.00;72.70;;;;;;4792825;29;20084;-81
2021/10/22 04:50:48;;;;;;;11.77;1.92;;;14.00;72.90;;;;;;4798982;29;20031;-81
2021/10/22 04:53:15;;;;;;;7.78;1.92;;;14.10;73.00;;;;;;4788547;29;20042;-81
2021/10/22 04:55:41;;;;;;;6.32;1.30;;;14.10;72.80;;;;;;4765240;29;20044;-81
2021/10/22 04:58:07;;;;;;;7.05;1.30;;;14.10;73.00;;;;;;4778831;30;20035;-81
2021/10/22 05:00:33;;;;;;;7.72;1.55;;;14.10;73.00;;;;;;4756252;30;20082;-81
2021/10/22 05:02:59;;;;;;;5.63;1.85;;;14.10;73.10;;;;;;4756204;30;20032;-81
2021/10/22 05:05:25;;;;;;;5.18;1.98;;;14.10;72.80;;;;;;4763887;30;20035;-81
2021/10/22 05:07:51;;;;;;;10.75;1.90;;;14.20;72.90;;;;;;4781723;29;20058;-81
2021/10/22 05:10:17;;;;;;;4.72;1.90;;;14.20;73.10;;;;;;4765037;30;20036;-81
2021/10/22 05:12:43;;;;;;;6.85;1.33;;;14.20;73.10;;;;;;4772878;30;20044;-81
2021/10/22 05:15:11;;;;;;;7.32;2.10;;;14.10;72.80;;;;;;4765468;30;20054;-80
2021/10/22 05:17:37;;;;;;;5.50;1.88;;;14.20;73.20;;;;;;4785782;30;20066;-81
2021/10/22 05:20:06;;;;;;;3.63;1.33;;;14.20;73.00;;;;;;4769983;30;20039;-81
2021/10/22 05:22:32;;;;;;;6.97;1.60;;;14.20;73.10;;;;;;4780505;29;20333;-81
2021/10/22 05:24:59;;;;;;;10.48;1.65;;;14.20;72.90;;;;;;4774414;30;20035;-81
2021/10/22 05:27:24;;;;;;;7.30;1.77;;;14.20;72.80;;;;;;4762452;30;20075;-81
2021/10/22 05:29:50;;;;;;;7.75;1.33;;;14.30;73.10;;;;;;4780124;30;20764;-81
2021/10/22 05:32:16;;;;;;;10.15;2.40;;;14.30;72.90;;;;;;4754753;30;20136;-81
2021/10/22 05:34:42;;;;;;;8.50;2.20;;;14.40;73.00;;;;;;4758161;30;20115;-81
2021/10/22 05:37:07;;;;;;;6.97;1.58;;;14.40;73.00;;;;;;4785103;30;20212;-81
2021/10/22 05:39:33;;;;;;;10.77;2.30;;;14.40;72.90;;;;;;4781094;30;20031;-81
2021/10/22 05:41:59;;;;;;;7.28;1.83;;;14.40;72.80;;;;;;4775162;29;20081;-81
2021/10/22 05:44:25;;;;;;;4.25;1.52;;;14.40;72.80;;;;;;4780445;30;20030;-81
2021/10/22 05:46:54;;;;;;;10.95;1.80;;;14.40;73.30;;;;;;4764600;29;20085;-81
2021/10/22 05:49:20;;;;;;;6.05;1.50;;;14.40;73.10;;;;;;4779224;30;20049;-81
2021/10/22 05:51:47;;;;;;;5.15;1.58;;;14.40;73.10;;;;;;4779362;29;20059;-81
2021/10/22 05:54:13;;;;;;;11.63;1.30;;;14.40;73.30;;;;;;4769245;30;20044;-81
2021/10/22 05:56:39;;;;;;;6.22;1.70;;;14.40;73.30;;;;;;4784451;29;20080;-81
2021/10/22 05:59:05;;;;;;;11.25;1.85;;;14.40;73.90;;;;;;4777255;29;20107;-81
2021/10/22 06:01:31;;;;;;;7.22;1.88;;;14.40;74.10;;;;;;4754410;30;20035;-81
2021/10/22 06:03:57;;;;;;;4.07;1.50;;;14.50;74.20;;;;;;4764899;30;20070;-81
2021/10/22 06:06:23;;;;;;;7.78;1.17;;;14.50;74.50;;;;;;4774431;30;20069;-81
2021/10/22 06:08:50;;;;;;;7.22;1.70;;;14.60;74.60;;;;;;4765255;30;20265;-81
2021/10/22 06:11:17;;;;;;;7.28;1.90;;;14.60;75.00;;;;;;4756352;30;20113;-81
2021/10/22 06:13:44;;;;;;;3.78;1.00;;;14.60;75.60;;;;;;4757374;30;20059;-81
2021/10/22 06:16:12;;;;;;;6.77;1.27;;;14.60;75.90;;;;;;4756850;30;20042;-80
2021/10/22 06:18:47;;;;;;;9.30;1.50;;;14.60;76.00;;;;;;4759979;30;20287;-81
2021/10/22 06:24:16;;;;;;;18.15;2.10;;;14.70;76.00;;;;;;4778911;29;20248;-80
2021/10/22 06:26:42;;;;;;;7.85;1.92;;;14.70;76.20;;;;;;4774843;29;20049;-81
2021/10/22 06:29:11;;;;;;;9.10;1.73;;;14.70;76.00;;;;;;4797909;29;20042;-80
2021/10/22 06:31:38;;;;;;;8.00;1.45;;;14.80;75.90;;;;;;4791192;29;20039;-81
2021/10/22 06:34:04;;;;;;;;;;;14.80;76.00;;;;;;4782754;29;20121;-81
2021/10/22 06:36:30;;;;;;;9.33;1.53;;;14.90;75.70;;;;;;4791655;29;19923;-81
2021/10/22 06:38:56;;;;;;;9.70;1.65;;;15.00;76.50;;;;;;4766190;30;20472;-80
2021/10/22 06:41:22;;;;;;;4.45;1.48;;;15.10;77.90;;;;;;4794725;29;20160;-81
2021/10/22 06:43:48;;;;;;;4.60;1.17;;;15.10;78.90;;;;;;4796421;29;20110;-81
2021/10/22 06:46:16;;;;;;;5.80;1.80;;;15.10;79.10;;;;;;4791700;29;20063;-81
2021/10/22 06:48:43;;;;;;;4.10;1.17;;;15.10;79.70;;;;;;4795980;29;20099;-80
2021/10/22 06:51:11;;;;;;;5.45;1.10;;;15.00;79.80;;;;;;4795909;29;20323;-80
2021/10/22 06:53:38;;;;;;;4.75;1.27;;;14.90;80.80;;;;;;4791620;29;20418;-80
2021/10/22 06:56:05;;;;;;;5.55;1.50;;;14.80;81.70;;;;;;4788325;29;20039;-79
2021/10/22 06:58:31;;;;;;;3.80;1.50;;;14.80;81.40;;;;;;4773704;30;20327;-80
2021/10/22 07:00:59;;;;;;;5.60;1.20;;;14.80;80.90;;;;;;4758212;30;20032;-79
2021/10/22 07:03:26;;;;;;;7.75;1.13;;;14.70;81.50;;;;;;4772597;30;20069;-79
2021/10/22 07:08:22;;;;;;;5.35;1.27;;;14.60;82.20;;;;;;4779571;30;20038;-79
2021/10/22 07:10:48;;;;;;;7.57;1.30;;;14.60;82.30;;;;;;4771528;30;20119;-79
2021/10/22 07:13:14;;;;;;;8.02;2.53;;;14.70;82.50;;;;;;4779426;29;20197;-79
2021/10/22 07:15:40;;;;;;;5.60;1.33;;;14.80;82.60;;;;;;4768609;30;20040;-79
2021/10/22 07:18:06;;;;;;;4.80;1.40;;;14.90;82.00;;;;;;4780732;30;20211;-79
2021/10/22 07:20:33;;;;;;;4.43;1.27;;;15.10;80.60;;;;;;4779048;30;20298;-79
2021/10/22 07:23:09;;;;;;;7.30;1.20;;;15.20;79.70;;;;;;4784059;30;20059;-79
2021/10/22 07:25:40;;;;;;;4.00;1.20;;;15.30;79.40;;;;;;4791750;29;20110;-79
2021/10/22 07:28:16;;;;;;;6.70;0.95;;;15.30;78.70;;;;;;4782822;30;20039;-80
2021/10/22 07:30:44;;;;;;;3.53;1.02;;;15.40;78.80;;;;;;4778441;29;20043;-79
2021/10/22 07:33:11;;;;;;;6.38;1.58;;;15.50;77.60;;;;;;4793281;29;20127;-79
2021/10/22 07:35:39;;;;;;;5.85;1.38;;;15.60;76.80;;;;;;4783516;29;20041;-80
2021/10/22 07:38:10;;;;;;;7.88;1.30;;;15.70;76.20;;;;;;4780803;29;20114;-79
2021/10/22 07:40:38;;;;;;;3.63;1.10;;;15.60;75.90;;;;;;4779667;29;20072;-80
2021/10/22 07:43:05;;;;;;;2.58;1.10;;;15.60;75.70;;;;;;4788302;30;20038;-79
2021/10/22 07:45:32;;;;;;;5.03;1.20;;;15.60;75.70;;;;;;4794925;29;20043;-79
2021/10/22 07:47:58;;;;;;;2.20;0.70;;;15.70;75.40;;;;;;4764480;30;20046;-79
2021/10/22 07:50:24;;;;;;;3.75;0.80;;;15.70;74.40;;;;;;4762873;30;20063;-81
2021/10/22 07:52:50;;;;;;;3.53;0.90;;;15.80;74.30;;;;;;4766826;30;20027;-79
2021/10/22 07:55:16;;;;;;;3.27;1.23;;;15.80;73.70;;;;;;4789285;29;20084;-79
2021/10/22 07:57:42;;;;;;;1.10;0.50;;;15.90;72.50;;;;;;4794721;29;20273;-79
2021/10/22 08:00:09;;;;;;;2.03;0.50;;;15.90;73.50;;;;;;4773209;30;20027;-80
2021/10/22 08:02:39;;;;;;;2.60;0.80;;;16.00;72.20;;;;;;4793765;30;20137;-80
2021/10/22 08:05:05;;;;;;;4.95;1.08;;;16.10;71.70;;;;;;4794801;29;20031;-79
2021/10/22 08:07:31;;;;;;;3.15;0.88;;;16.20;71.10;;;;;;4789628;29;20242;-80
2021/10/22 08:10:00;;;;;;;4.50;1.20;;;16.30;70.50;;;;;;4794997;29;20116;-80
2021/10/22 08:12:27;;;;;;;4.07;1.27;;;16.40;71.00;;;;;;4786912;30;20040;-80
2021/10/22 08:14:53;;;;;;;2.87;0.80;;;16.50;70.80;;;;;;4793194;29;20054;-80
2021/10/22 08:17:20;;;;;;;2.58;1.30;;;16.40;70.60;;;;;;4790187;29;20246;-80
2021/10/22 08:19:53;;;;;;;8.07;1.25;;;16.50;71.20;;;;;;4783044;30;20019;-79
2021/10/22 08:22:27;;;;;;;3.25;0.82;;;16.40;70.80;;;;;;4798697;29;20057;-80
2021/10/22 08:25:00;;;;;;;1.58;1.00;;;16.50;70.20;;;;;;4798322;29;20034;-79
2021/10/22 08:27:44;;;;;;;2.58;0.88;;;16.80;70.00;;;;;;4777449;30;20361;-80
2021/10/22 08:30:15;;;;;;;3.05;0.75;;;17.00;68.30;;;;;;4759989;30;20107;-80
2021/10/22 08:32:41;;;;;;;2.80;1.13;;;17.10;68.10;;;;;;4786492;29;20043;-81
2021/10/22 08:35:08;;;;;;;2.78;1.00;;;17.10;66.70;;;;;;4766435;30;20417;-80
2021/10/22 08:37:38;;;;;;;3.95;1.20;;;17.00;67.50;;;;;;4765536;30;20307;-80
2021/10/22 08:40:06;;;;;;;3.70;0.98;;;16.90;66.40;;;;;;4784141;29;20044;-80
2021/10/22 08:42:32;;;;;;;3.65;0.90;;;16.80;67.40;;;;;;4783055;29;20031;-80
2021/10/22 08:44:58;;;;;;;2.45;0.98;;;16.80;68.70;;;;;;4786362;29;20349;-80
2021/10/22 08:47:32;;;;;;;4.10;1.00;;;16.70;67.60;;;;;;4786190;29;20051;-80
2021/10/22 08:50:10;;;;;;;3.15;0.90;;;16.70;68.20;;;;;;4782421;29;20216;-80
2021/10/22 08:52:36;;;;;;;1.30;0.80;;;16.50;68.40;;;;;;4780381;29;20035;-80
2021/10/22 08:55:04;;;;;;;6.90;1.05;;;16.50;68.80;;;;;;4791253;30;20023;-80
2021/10/22 08:57:31;;;;;;;4.68;0.93;;;16.40;69.20;;;;;;4797780;30;20246;-80
2021/10/22 09:00:02;;;;;;;4.15;1.10;;;16.50;69.20;;;;;;4793923;29;20221;-80
2021/10/22 09:02:29;;;;;;;1.98;1.38;;;16.70;68.70;;;;;;4780486;29;20297;-80
2021/10/22 09:04:59;;;;;;;6.88;1.25;;;16.80;68.60;;;;;;4790586;29;20260;-78
2021/10/22 09:07:41;;;;;;;6.35;0.90;;;16.90;68.40;;;;;;4786720;29;20107;-78
2021/10/22 09:10:14;;;;;;;2.17;0.60;;;16.90;67.40;;;;;;4782455;30;20197;-80
2021/10/22 09:13:03;;;;;;;4.32;0.90;;;16.90;67.80;;;;;;4773639;30;20044;-80
2021/10/22 09:15:39;;;;;;;1.65;0.82;;;17.00;68.10;;;;;;4790251;30;20335;-80
2021/10/22 09:18:18;;;;;;;1.75;0.80;;;17.00;67.40;;;;;;4782189;30;20043;-80
2021/10/22 09:21:01;;;;;;;1.30;0.70;;;17.20;65.90;;;;;;4792627;30;20223;-80
2021/10/22 09:23:34;;;;;;;3.28;0.55;;;17.30;65.40;;;;;;4789493;29;20715;-79
2021/10/22 09:26:23;;;;;;;1.48;0.30;;;17.30;64.70;;;;;;4780087;29;20094;-80
2021/10/22 09:28:51;;;;;;;2.15;0.80;;;17.30;65.30;;;;;;4794776;29;20470;-80
2021/10/22 09:31:18;;;;;;;3.03;0.75;;;17.40;65.90;;;;;;4779405;30;20237;-79
2021/10/22 09:33:50;;;;;;;;;;;17.40;64.90;;;;;;4765257;30;20356;-80
2021/10/22 09:36:33;;;;;;;6.43;0.60;;;17.40;65.00;;;;;;4798854;29;19920;-80
2021/10/22 09:39:13;;;;;;;4.60;0.52;;;17.20;65.40;;;;;;4780159;29;20089;-80
2021/10/22 09:41:46;;;;;;;2.72;0.65;;;17.10;65.90;;;;;;4780279;29;20107;-80
2021/10/22 09:44:27;;;;;;;4.97;1.00;;;17.00;65.80;;;;;;4785343;29;20322;-80
2021/10/22 09:47:05;;;;;;;2.10;0.57;;;16.90;66.30;;;;;;4794986;29;20074;-80
2021/10/22 09:49:46;;;;;;;2.55;0.63;;;16.70;66.80;;;;;;4781616;30;20043;-80
2021/10/22 09:52:18;;;;;;;2.17;0.60;;;16.60;67.00;;;;;;4796762;29;20114;-80
2021/10/22 09:54:46;;;;;;;1.45;0.40;;;16.60;67.00;;;;;;4781328;29;20040;-80
2021/10/22 09:57:15;;;;;;;1.23;0.50;;;16.40;66.70;;;;;;4779251;30;20043;-79
2021/10/22 09:59:42;;;;;;;3.22;0.93;;;16.30;67.50;;;;;;4779500;29;20027;-80
2021/10/22 10:02:10;;;;;;;7.60;0.60;;;16.30;67.60;;;;;;4780351;29;20335;-80
2021/10/22 10:04:37;;;;;;;1.45;0.95;;;16.30;68.20;;;;;;4794967;30;20035;-80
2021/10/22 10:07:05;;;;;;;3.78;0.88;;;16.30;68.20;;;;;;4792495;29;20327;-80
2021/10/22 10:09:31;;;;;;;4.68;0.70;;;16.30;67.60;;;;;;4778866;29;20327;-80
2021/10/22 10:12:01;;;;;;;2.47;0.68;;;16.30;68.20;;;;;;4783244;29;20035;-80
2021/10/22 10:14:31;;;;;;;4.35;0.63;;;16.20;68.30;;;;;;4771242;29;20040;-80
2021/10/22 10:16:58;;;;;;;2.10;0.73;;;16.20;68.60;;;;;;4763993;30;20040;-80
2021/10/22 10:19:33;;;;;;;3.83;0.52;;;16.10;68.50;;;;;;4763869;30;20055;-79
2021/10/22 10:22:00;;;;;;;1.88;0.52;;;16.10;69.50;;;;;;4779112;30;20027;-80
2021/10/22 10:24:41;;;;;;;0.90;0.45;;;16.10;69.30;;;;;;4793488;29;20044;-80
2021/10/22 10:27:17;;;;;;;5.05;1.50;;;16.00;69.80;;;;;;4784751;29;20053;-80
2021/10/22 10:29:52;;;;;;;3.95;0.73;;;15.90;70.00;;;;;;4778968;30;20070;-80
2021/10/22 10:32:21;;;;;;;2.53;1.10;;;15.80;70.40;;;;;;4779563;29;20363;-79
2021/10/22 10:34:55;;;;;;;5.07;1.00;;;15.80;70.70;;;;;;4779027;30;20040;-79
2021/10/22 10:37:25;;;;;;;1.40;0.47;;;15.80;70.60;;;;;;4784756;29;20036;-80
2021/10/22 10:40:00;;;;;;;2.08;0.90;;;15.80;70.90;;;;;;4808394;29;20035;-79
2021/10/22 10:42:26;;;;;;;2.42;0.82;;;15.70;71.10;;;;;;4778126;29;20031;-80
2021/10/22 10:44:54;;;;;;;2.20;0.95;;;15.70;71.30;;;;;;4783840;29;20030;-79
2021/10/22 10:47:26;;;;;;;2.80;0.60;;;15.70;71.00;;;;;;4780847;29;20083;-79
2021/10/22 10:49:52;;;;;;;1.50;0.70;;;15.90;71.30;;;;;;4778599;29;20046;-80
2021/10/22 10:52:36;;;;;;;1.73;0.70;;;16.00;70.80;;;;;;4773803;30;20039;-80
2021/10/22 10:55:30;;;;;;;3.97;1.13;;;16.20;70.30;;;;;;4808259;29;20042;-80
2021/10/22 10:58:18;;;;;;;4.20;0.90;;;16.20;70.10;;;;;;4793122;29;20039;-80
2021/10/22 11:00:56;;;;;;;3.63;1.02;;;16.30;69.90;;;;;;4778538;29;20036;-80
2021/10/22 11:03:58;;;;;;;3.45;0.93;;;16.40;70.10;;;;;;4787361;29;20035;-80
2021/10/22 11:06:50;;;;;;;2.25;0.68;;;16.60;69.50;;;;;;4813085;29;20079;-80
2021/10/22 11:09:31;;;;;;;2.35;0.77;;;16.50;68.60;;;;;;4784667;30;20115;-79
2021/10/22 11:12:01;;;;;;;6.85;1.02;;;16.40;68.90;;;;;;4801243;29;20039;-80
2021/10/22 11:14:40;;;;;;;6.43;1.00;;;16.30;69.60;;;;;;4797813;29;20100;-79
2021/10/22 11:17:08;;;;;;;2.55;1.25;;;16.20;69.30;;;;;;4771143;29;20072;-80
2021/10/22 11:19:36;;;;;;;7.20;1.20;;;16.20;69.60;;;;;;4778733;29;20231;-80
2021/10/22 11:22:12;;;;;;;8.65;1.00;;;16.30;69.50;;;;;;4781041;29;20045;-80
2021/10/22 11:24:39;;;;;;;3.70;0.93;;;16.00;69.80;;;;;;4765996;29;20043;-80
2021/10/22 11:27:06;;;;;;;;;;;16.00;70.20;;;;;;4781685;29;20381;-80
2021/10/22 11:29:33;;;;;;;;;;;16.00;70.50;;;;;;4802253;29;20014;-80
2021/10/22 11:32:10;;;;;;;2.67;0.60;;;16.00;70.40;;;;;;4805955;29;19910;-80
2021/10/22 11:34:38;;;;;;;1.70;0.80;;;16.00;70.60;;;;;;4793929;29;20400;-79
2021/10/22 11:37:09;;;;;;;1.98;0.70;;;16.00;70.00;;;;;;4765419;30;20091;-79
2021/10/22 11:39:37;;;;;;;1.95;0.68;;;16.10;70.50;;;;;;4774416;30;20328;-79
2021/10/22 11:42:16;;;;;;;3.13;0.73;;;16.10;70.10;;;;;;4762887;30;20099;-79
2021/10/22 11:44:48;;;;;;;1.65;0.98;;;16.10;70.50;;;;;;4773065;30;20087;-79
2021/10/22 11:47:14;;;;;;;5.53;0.95;;;16.20;70.60;;;;;;4779254;29;20063;-79
2021/10/22 11:49:42;;;;;;;8.65;1.30;;;16.40;70.30;;;;;;4795061;29;20031;-79
2021/10/22 11:52:14;;;;;;;2.40;1.35;;;16.40;69.60;;;;;;4794882;29;20062;-81
2021/10/22 11:54:45;;;;;;;4.68;1.60;;;16.20;69.60;;;;;;4779910;29;20331;-81
2021/10/22 11:57:19;;;;;;;3.15;1.30;;;16.30;69.90;;;;;;4794252;29;20035;-81
2021/10/22 11:59:48;;;;;;;3.28;1.67;;;16.30;70.00;;;;;;4796493;30;20077;-80
2021/10/22 12:02:14;;;;;;;6.68;1.48;;;16.30;69.20;;;;;;4783397;29;20118;-78
2021/10/22 12:04:41;;;;;;;4.82;1.50;;;16.20;69.80;;;;;;4781228;29;20244;-77
2021/10/22 12:07:09;;;;;;;1.95;1.38;;;16.20;69.90;;;;;;4781271;29;20047;-77
2021/10/22 12:09:40;;;;;;;5.63;1.33;;;16.10;70.00;;;;;;4793749;30;20113;-78
2021/10/22 12:12:09;;;;;;;3.83;2.22;;;16.20;70.20;;;;;;4798471;29;20038;-78
2021/10/22 12:14:40;;;;;;;5.38;1.13;;;16.30;69.80;;;;;;4792571;29;20043;-78
2021/10/22 12:17:11;;;;;;;4.47;1.15;;;16.40;69.40;;;;;;4796357;29;20102;-78
2021/10/22 12:19:42;;;;;;;3.95;1.05;;;16.70;69.40;;;;;;4790457;29;20040;-79
2021/10/22 12:22:08;;;;;;;2.88;1.00;;;16.80;68.10;;;;;;4797452;29;20027;-80
2021/10/22 12:24:43;;;;;;;3.65;1.05;;;16.80;67.50;;;;;;4798730;29;20200;-80
2021/10/22 12:27:10;;;;;;;3.45;1.05;;;16.60;67.80;;;;;;4797411;29;20027;-79
2021/10/22 12:29:55;;;;;;;;;;;16.60;68.60;;;;;;4771277;29;20280;-78
2021/10/22 12:32:43;;;;;;;2.35;1.00;;;16.40;68.00;;;;;;4789708;29;19917;-78
2021/10/22 12:35:27;;;;;;;2.13;1.25;;;16.20;68.90;;;;;;4790504;29;20040;-78
2021/10/22 12:37:56;;;;;;;3.75;1.08;;;16.20;69.40;;;;;;4778841;30;20163;-80
2021/10/22 12:40:25;;;;;;;1.73;0.77;;;16.40;68.90;;;;;;4789599;30;20032;-80
2021/10/22 12:43:06;;;;;;;2.13;0.60;;;16.40;68.90;;;;;;4792637;30;20039;-81
2021/10/22 12:45:32;;;;;;;1.17;0.50;;;16.30;67.90;;;;;;4785492;29;20051;-79
2021/10/22 12:48:06;;;;;;;4.30;0.50;;;16.30;68.60;;;;;;4769569;30;20048;-79
2021/10/22 12:50:35;;;;;;;3.28;0.77;;;16.40;67.70;;;;;;4789495;30;20047;-79
2021/10/22 12:53:05;;;;;;;3.45;1.00;;;16.40;67.80;;;;;;4797901;29;20027;-79
2021/10/22 12:55:31;;;;;;;2.17;0.60;;;16.50;67.20;;;;;;4797628;29;20050;-80
2021/10/22 12:58:21;;;;;;;1.30;0.70;;;16.50;67.50;;;;;;4769873;30;20308;-80
2021/10/22 13:01:06;;;;;;;2.20;0.80;;;16.40;67.80;;;;;;4781566;30;20040;-80
2021/10/22 13:03:32;;;;;;;6.40;0.85;;;16.40;68.10;;;;;;4793945;29;20046;-80
2021/10/22 13:06:13;;;;;;;6.77;0.70;;;16.20;68.00;;;;;;4796818;29;20031;-80
2021/10/22 13:22:06;;;;;;;1.70;0.60;;;15.40;68.00;;;;;;4796076;30;20055;-80
2021/10/22 13:24:31;;;;;;;3.40;0.63;;;15.30;68.50;;;;;;4781251;30;20201;-80
2021/10/22 13:27:16;;;;;;;5.18;0.82;;;15.20;68.90;;;;;;4777404;30;20069;-80
2021/10/22 13:29:42;;;;;;;4.65;0.90;;;15.10;69.40;;;;;;4778730;30;20044;-80
2021/10/22 13:32:08;;;;;;;3.10;1.02;;;15.10;69.90;;;;;;4770473;30;20063;-80
2021/10/22 13:34:33;;;;;;;4.57;0.88;;;15.10;69.70;;;;;;4785888;30;20043;-80
2021/10/22 13:36:59;;;;;;;4.00;0.68;;;15.20;69.50;;;;;;4779831;30;20039;-80
2021/10/22 13:39:25;;;;;;;1.27;0.70;;;15.10;69.20;;;;;;4779926;30;20027;-80
2021/10/22 13:41:51;;;;;;;2.13;1.00;;;15.10;69.30;;;;;;4779153;30;20044;-80
2021/10/22 13:44:17;;;;;;;1.88;0.80;;;15.10;69.40;;;;;;4769125;30;20032;-80
2021/10/22 13:46:43;;;;;;;11.73;1.67;;;15.10;69.70;;;;;;4763968;30;20060;-81
2021/10/22 13:49:09;;;;;;;5.28;1.00;;;15.00;69.50;;;;;;4787435;30;20358;-80
2021/10/22 13:51:36;;;;;;;3.28;0.80;;;15.10;69.60;;;;;;4797045;29;20039;-80
2021/10/22 13:54:02;;;;;;;1.70;0.95;;;15.10;69.40;;;;;;4785538;29;20027;-80
2021/10/22 13:56:28;;;;;;;2.30;1.00;;;15.20;69.30;;;;;;4784819;29;20043;-80
2021/10/22 13:58:55;;;;;;;4.07;1.30;;;15.20;69.30;;;;;;4778881;29;20031;-80
2021/10/22 14:01:24;;;;;;;1.50;0.70;;;15.20;68.90;;;;;;4771186;29;20200;-80
2021/10/22 14:03:49;;;;;;;2.33;0.80;;;15.20;68.40;;;;;;4776027;30;20043;-80
2021/10/22 14:06:15;;;;;;;2.13;1.00;;;15.10;68.20;;;;;;4791421;30;20039;-80
2021/10/22 14:08:41;;;;;;;1.77;0.80;;;15.00;67.80;;;;;;4776220;30;20036;-80
2021/10/22 14:11:12;;;;;;;2.80;0.88;;;15.10;67.30;;;;;;4762547;30;20099;-80
2021/10/22 14:19:15;;;;;;;2.88;0.57;;;14.80;65.60;;;;;;4801154;29;20039;-80
2021/10/22 14:29:38;;;;;;;3.78;0.98;;;14.80;66.00;;;;;;4779770;30;20157;-80
2021/10/22 14:32:04;;;;;;;1.42;0.73;;;14.80;65.90;;;;;;4782299;29;20031;-80
2021/10/22 14:34:30;;;;;;;10.68;0.85;;;14.90;66.40;;;;;;4760100;30;20031;-80
2021/10/22 14:36:56;;;;;;;2.45;0.90;;;14.80;66.00;;;;;;4766507;30;20326;-80
2021/10/22 14:39:25;;;;;;;6.38;1.13;;;14.90;66.00;;;;;;4760955;30;20027;-80
2021/10/22 14:41:52;;;;;;;2.15;0.95;;;15.00;65.90;;;;;;4795632;29;20091;-80
2021/10/22 14:44:19;;;;;;;2.25;0.70;;;15.00;65.00;;;;;;4785978;29;20037;-80
2021/10/22 14:46:55;;;;;;;;;;;15.00;64.90;;;;;;4770935;30;20051;-81
2021/10/22 14:49:23;;;;;;;5.32;0.65;;;14.90;64.50;;;;;;4782031;29;19909;-82
2021/10/22 14:54:19;;;;;;;1.75;0.68;;;14.90;64.90;;;;;;4810205;29;20045;-81
2021/10/22 14:56:46;;;;;;;2.80;0.77;;;14.90;64.30;;;;;;4795678;29;20327;-80
2021/10/22 14:59:12;;;;;;;4.70;0.80;;;14.80;64.30;;;;;;4795685;29;20038;-81
2021/10/22 15:01:39;;;;;;;2.47;0.63;;;14.80;64.40;;;;;;4789601;29;20048;-81
2021/10/22 15:04:06;;;;;;;;;;;14.70;64.10;;;;;;4762528;30;20081;-82
2021/10/22 15:06:33;;;;;;;1.25;0.60;;;14.70;64.50;;;;;;4801750;29;19905;-81
2021/10/22 15:08:59;;;;;;;;;;;14.60;64.00;;;;;;4789479;30;20288;-79
2021/10/22 15:11:25;;;;;;;2.10;0.47;;;14.60;64.30;;;;;;4782369;29;19909;-81
2021/10/22 15:13:51;;;;;;;1.70;0.68;;;14.60;63.60;;;;;;4765652;30;20479;-79
2021/10/22 15:16:16;;;;;;;2.10;0.47;;;14.50;63.70;;;;;;4777073;30;20153;-79
2021/10/22 15:18:43;;;;;;;2.10;0.75;;;14.60;64.00;;;;;;4778865;30;20039;-80
2021/10/22 15:21:14;;;;;;;3.40;0.90;;;14.50;63.30;;;;;;4787431;29;20046;-79
2021/10/22 15:23:40;;;;;;;2.22;0.60;;;14.50;63.40;;;;;;4772481;30;20099;-79
2021/10/22 15:26:07;;;;;;;2.20;0.80;;;14.40;62.80;;;;;;4791481;29;20284;-80
2021/10/22 15:28:34;;;;;;;2.17;0.70;;;14.40;62.30;;;;;;4769643;30;20043;-79
2021/10/22 15:31:00;;;;;;;;;;;14.20;62.10;;;;;;4772548;30;20039;-80
2021/10/22 15:33:26;;;;;;;3.15;0.77;;;14.10;61.60;;;;;;4790181;29;19964;-79
2021/10/22 15:35:52;;;;;;;3.05;0.68;;;14.00;62.20;;;;;;4793174;29;20071;-80
2021/10/22 15:38:18;;;;;;;1.42;0.60;;;14.00;62.60;;;;;;4766785;30;20323;-80
2021/10/22 15:40:43;;;;;;;1.88;0.70;;;14.00;63.20;;;;;;4769488;30;20071;-80
2021/10/22 15:43:10;;;;;;;2.42;1.00;;;13.90;63.50;;;;;;4768551;29;20051;-80
2021/10/22 15:45:36;;;;;;;2.27;0.63;;;13.80;63.80;;;;;;4736717;29;1188355;-79
2021/10/22 15:48:03;;;;;;;4.78;1.15;;;13.70;63.70;;;;;;4766451;29;20615;-80
2021/10/22 15:50:29;;;;;;;7.60;1.02;;;13.70;63.90;;;;;;4783076;29;20028;-79
2021/10/22 15:52:55;;;;;;;3.10;1.40;;;13.60;63.40;;;;;;4782437;30;20302;-80
2021/10/22 15:55:21;;;;;;;5.03;1.55;;;13.50;64.00;;;;;;4785344;29;20034;-80
2021/10/22 15:57:47;;;;;;;6.78;1.05;;;13.50;63.80;;;;;;4788086;29;20042;-80
2021/10/22 16:00:15;;;;;;;3.47;0.88;;;13.40;64.10;;;;;;4782665;29;20059;-80
2021/10/22 16:02:42;;;;;;;2.28;0.70;;;13.40;63.90;;;;;;4784227;29;20267;-80
2021/10/22 16:05:13;;;;;;;7.65;1.60;;;13.30;64.20;;;;;;4786431;29;20077;-80
2021/10/22 16:10:23;;;;;;;6.80;1.40;;;13.20;64.00;;;;;;4790096;30;20230;-80
2021/10/22 16:17:50;;;;;;;4.30;1.27;;;13.10;63.90;;;;;;4813991;29;20215;-80
2021/10/22 16:20:15;;;;;;;2.47;1.05;;;13.20;63.90;;;;;;4785399;29;20041;-80
2021/10/22 16:22:41;;;;;;;5.05;1.13;;;13.10;63.90;;;;;;4818881;29;20049;-79
2021/10/22 16:25:07;;;;;;;11.38;1.75;;;13.10;64.10;;;;;;4812386;29;20023;-79
2021/10/22 16:27:33;;;;;;;5.28;1.33;;;13.00;64.30;;;;;;4815018;29;20238;-80